trip_id string | route_id string | direction_id int32 | start_time timestamp[ns, tz=UTC] | schedule_relationship int32 | latitude float32 | longitude float32 | bearing float32 | odometer float64 | speed float32 | current_stop_sequence uint32 | stop_id string | current_status int32 | timestamp timestamp[ns, tz=UTC] | congestion_level int32 | occupancy_status int32 | vehicle_id string | vehicle_label string | license_plate string | year int64 | month int64 |
|---|---|---|---|---|---|---|---|---|---|---|---|---|---|---|---|---|---|---|---|---|
10051097:5679285:5690762 | 7-VIC | 1 | 2024-05-01T06:06:00 | 0 | 48.415291 | -123.330948 | 0 | 0 | 0 | 18 | 100390 | 2 | 2024-05-02T05:29:03 | 1 | 0 | 3131359990 | 3131359990 | 2,024 | 5 | |
10051000:5673916:5690762 | 21-VIC | 1 | 2024-05-02T05:48:00 | 0 | 48.498421 | -123.419426 | 0 | 113,540 | 0 | 1 | 101365 | 2 | 2024-05-02T05:29:17 | 1 | 0 | 3131359398 | 3131359398 | 2,024 | 5 | |
10070341:5681515:5690952 | 95-VIC | 0 | 2024-05-02T04:59:00 | 0 | 48.428471 | -123.364449 | 0 | 258,770 | 4.72 | 21 | 100082 | 1 | 2024-05-02T05:29:17 | 1 | 0 | 3131359511 | 3131359511 | 2,024 | 5 | |
10051009:5681806:5690550 | 21-VIC | 0 | 2024-05-02T05:05:00 | 0 | 48.463207 | -123.404182 | 0 | 50,653 | 6.38 | 20 | 100903 | 0 | 2024-05-02T05:29:17 | 1 | 0 | 3131351237 | 3131351237 | 2,024 | 5 | |
10113831:5685590:5690058 | 58-VIC | 0 | 2024-05-02T05:10:00 | 0 | 48.445724 | -123.518539 | 0 | 392,908 | 0 | 2 | 930000 | 2 | 2024-05-02T05:28:41 | 1 | 0 | 3131351174 | 3131351174 | 2,024 | 5 | |
10024590:5689097:5690620 | 14-VIC | 1 | 2024-05-02T05:09:00 | 0 | 48.424606 | -123.346176 | 0 | 189,022 | 11.47 | 25 | 100191 | 1 | 2024-05-02T05:29:15 | 1 | 0 | 3131359443 | 3131359443 | 2,024 | 5 | |
10115221:5684515:5690465 | 8-VIC | 0 | 2024-05-02T04:57:00 | 0 | 48.475189 | -123.513039 | 0 | 188,743 | 11.38 | 2 | 101834 | 2 | 2024-05-02T05:29:11 | 1 | 0 | 3131351247 | 3131351247 | 2,024 | 5 | |
10025722:5682037:5691131 | 27-VIC | 0 | 2024-05-02T04:55:00 | 0 | 48.486038 | -123.307838 | 0 | 121,800 | 11.11 | 42 | 101390 | 2 | 2024-05-02T05:29:16 | 1 | 0 | 3131359486 | 3131359486 | 2,024 | 5 | |
10054643:5681080:5691243 | 15-VIC | 0 | 2024-05-02T05:01:00 | 0 | 48.449501 | -123.318367 | 0 | 252,643 | 11.38 | 28 | 100913 | 2 | 2024-05-02T05:29:17 | 1 | 0 | 3131359313 | 3131359313 | 2,024 | 5 | |
10054582:5679167:5690397 | 15-VIC | 1 | 2024-05-02T05:21:00 | 0 | 48.431339 | -123.32653 | 0 | 142,667 | 10 | 7 | 100438 | 2 | 2024-05-02T05:29:09 | 1 | 0 | 3131359455 | 3131359455 | 2,024 | 5 | |
10024592:5679684:5690911 | 14-VIC | 0 | 2024-05-02T05:04:00 | 0 | 48.42374 | -123.357491 | 0 | 257,274 | 6.38 | 33 | 100126 | 2 | 2024-05-02T05:29:09 | 1 | 0 | 3131359466 | 3131359466 | 2,024 | 5 | |
10115324:5677802:5690389 | 52-VIC | 0 | 2024-05-02T05:19:00 | 0 | 48.445641 | -123.518517 | 0 | 148,754 | 1.94 | 2 | 930000 | 2 | 2024-05-02T05:29:11 | 1 | 0 | 3131354208 | 3131354208 | 2,024 | 5 | |
10025529:5681652:5691314 | 25-VIC | 1 | 2024-05-02T04:59:00 | 0 | 48.422062 | -123.412231 | 0 | 282,926 | 5.83 | 48 | 100444 | 2 | 2024-05-02T05:29:11 | 1 | 0 | 3131359456 | 3131359456 | 2,024 | 5 | |
10025260:5688255:5690630 | 11-VIC | 1 | 2024-05-02T05:07:00 | 0 | 48.424465 | -123.343033 | 0 | 171,841 | 7.22 | 40 | 100191 | 2 | 2024-05-02T05:29:13 | 1 | 0 | 3131351179 | 3131351179 | 2,024 | 5 | |
10053573:5681295:5691056 | 6-VIC | 1 | 2024-05-02T05:52:00 | 0 | 48.499035 | -123.388794 | 0 | 80,302 | 0 | 1 | 102490 | 2 | 2024-05-02T05:28:33 | 1 | 0 | 3131359436 | 3131359436 | 2,024 | 5 | |
10070154:5680186:5690876 | 26-VIC | 1 | 2024-05-02T05:20:00 | 0 | 48.470413 | -123.362061 | 0 | 259,201 | 0 | 14 | 100927 | 1 | 2024-05-02T05:29:15 | 1 | 0 | 3131359462 | 3131359462 | 2,024 | 5 | |
10053521:5673796:5690870 | 6-VIC | 0 | 2024-05-02T05:20:00 | 0 | 48.435593 | -123.357986 | 0 | 135,308 | 0 | 10 | 100208 | 1 | 2024-05-02T05:29:16 | 1 | 0 | 3131351173 | 3131351173 | 2,024 | 5 | |
10024591:5673982:5690671 | 14-VIC | 0 | 2024-05-02T05:35:00 | 0 | 48.466251 | -123.435051 | 0 | 283,327 | 0 | 1 | 101119 | 1 | 2024-05-02T05:28:56 | 1 | 0 | 3131359481 | 3131359481 | 2,024 | 5 | |
10115314:5673762:5690474 | 22-VIC | 0 | 2024-05-02T04:58:00 | 0 | 48.445602 | -123.518219 | 0 | 243,249 | 0 | 2 | 930000 | 2 | 2024-05-02T05:29:03 | 1 | 0 | 3131351169 | 3131351169 | 2,024 | 5 | |
10053557:5687094:5690314 | 75-VIC | 0 | 2024-05-02T05:13:00 | 0 | 48.45554 | -123.371323 | 0 | 229,844 | 8.33 | 16 | 100642 | 2 | 2024-05-02T05:29:11 | 1 | 0 | 3131359286 | 3131359286 | 2,024 | 5 | |
10070728:5681662:5690391 | 72-VIC | 0 | 2024-05-02T04:30:00 | 0 | 48.656353 | -123.402962 | 0 | 384,768 | 10 | 51 | 102287 | 2 | 2024-05-02T05:29:08 | 1 | 0 | 3131359421 | 3131359421 | 2,024 | 5 | |
10051099:5688223:5695591 | 7-VIC | 0 | 2024-05-02T05:13:00 | 0 | 48.411568 | -123.350647 | 0 | 343,352 | 11.11 | 31 | 100155 | 2 | 2024-05-02T05:29:13 | 1 | 0 | 3131359312 | 3131359312 | 2,024 | 5 | |
10069961:5689983:5690112 | 4-VIC | 0 | 2024-05-02T05:27:00 | 0 | 48.425426 | -123.365059 | 0 | 124,562 | 8.05 | 3 | 100076 | 2 | 2024-05-02T05:29:01 | 1 | 0 | 3131359506 | 3131359506 | 2,024 | 5 | |
10069962:5685240:5691115 | 4-VIC | 0 | 2024-05-02T05:07:00 | 0 | 48.462116 | -123.308342 | 0 | 152,491 | 9.16 | 29 | 102420 | 2 | 2024-05-02T05:29:08 | 1 | 0 | 3131359410 | 3131359410 | 2,024 | 5 | |
10094108:5685911:5690773 | 57-VIC | 1 | 2024-05-02T05:22:00 | 0 | 48.464706 | -123.49707 | 0 | 156,571 | 0.83 | 9 | 101623 | 0 | 2024-05-02T05:29:15 | 1 | 0 | 3131354212 | 3131354212 | 2,024 | 5 | |
10053518:5686861:5695768 | 6-VIC | 1 | 2024-05-02T05:24:00 | 0 | 48.481167 | -123.378136 | 0 | 23,762 | 1.66 | 7 | 101086 | 1 | 2024-05-02T05:29:12 | 1 | 0 | 3131351182 | 3131351182 | 2,024 | 5 | |
10070346:5688208:5690499 | 95-VIC | 1 | 2024-05-02T05:04:00 | 0 | 48.444229 | -123.467949 | 0 | 355,815 | 0.27 | 15 | 101245 | 1 | 2024-05-02T05:29:09 | 1 | 0 | 3131351240 | 3131351240 | 2,024 | 5 | |
10094151:5688108:5690119 | 60-VIC | 0 | 2024-05-02T05:09:00 | 0 | 48.43895 | -123.506805 | 0 | 0 | 6.22 | 29 | 101846 | 2 | 2024-05-02T05:29:05 | 1 | 0 | 3131354242 | 3131354242 | 2,024 | 5 | |
10069945:5679308:5695840 | 4-VIC | 1 | 2024-05-02T05:24:00 | 0 | 48.447941 | -123.320663 | 0 | 0 | 12.5 | 8 | 100752 | 2 | 2024-05-02T05:29:14 | 1 | 0 | 3131359445 | 3131359445 | 2,024 | 5 | |
10070711:5688859:5690399 | 70-VIC | 0 | 2024-05-02T04:53:00 | 0 | 48.587688 | -123.401131 | 0 | 238,466 | 25.83 | 20 | 102474 | 2 | 2024-05-02T05:29:16 | 1 | 0 | 3131359538 | 3131359538 | 2,024 | 5 | |
10025335:5685663:5690335 | 8-VIC | 0 | 2024-05-02T05:10:00 | 0 | 48.44836 | -123.344795 | 0 | 134,886 | 0.55 | 29 | 100541 | 1 | 2024-05-02T05:29:13 | 1 | 0 | 3131359465 | 3131359465 | 2,024 | 5 | |
10115431:5680383:5690198 | 49-VIC | 0 | 2024-05-02T05:25:00 | 0 | 48.45192 | -123.517944 | 0 | 0 | 11.67 | 2 | 930000 | 2 | 2024-05-02T05:29:17 | 1 | 0 | 3131354211 | 3131354211 | 2,024 | 5 | |
10070674:5687017:5690196 | 72-VIC | 1 | 2024-05-02T04:57:00 | 0 | 48.590103 | -123.418991 | 0 | 192,991 | 13.05 | 35 | 102030 | 2 | 2024-05-02T05:29:15 | 1 | 0 | 3131359504 | 3131359504 | 2,024 | 5 | |
10113714:5683491:5695463 | 32-VIC | 0 | 2024-05-02T05:25:00 | 0 | 48.469467 | -123.423286 | 0 | 395,952 | 15.55 | 2 | 930000 | 2 | 2024-05-02T05:29:14 | 1 | 0 | 3131354217 | 3131354217 | 2,024 | 5 | |
10054254:5689524:5691489 | 2-VIC | 0 | 2024-05-02T05:00:00 | 0 | 48.426422 | -123.311852 | 0 | 250,507 | 10.83 | 40 | 100714 | 2 | 2024-05-02T05:29:09 | 1 | 0 | 3131359468 | 3131359468 | 2,024 | 5 | |
10053680:5676781:5695407 | 75-VIC | 1 | 2024-05-02T05:30:00 | 0 | 48.593079 | -123.417023 | 0 | 118,795 | 9.16 | 2 | 102030 | 2 | 2024-05-02T05:29:10 | 1 | 0 | 3131359379 | 3131359379 | 2,024 | 5 | |
10053552:5681858:5690324 | 75-VIC | 1 | 2024-05-02T04:30:00 | 0 | 48.424854 | -123.365379 | 0 | 123,808 | 0 | 56 | 100034 | 1 | 2024-05-02T05:29:16 | 1 | 0 | 3131359424 | 3131359424 | 2,024 | 5 | |
10054606:5688758:5690743 | 15-VIC | 0 | 2024-05-02T05:26:00 | 0 | 48.428535 | -123.428116 | 0 | 266,027 | 0 | 2 | 100693 | 1 | 2024-05-02T05:28:55 | 1 | 0 | 3131359428 | 3131359428 | 2,024 | 5 | |
10053546:5681087:5695474 | 30-VIC | 1 | 2024-05-02T05:10:00 | 0 | 48.435299 | -123.365349 | 0 | 291,194 | 0 | 27 | 100177 | 1 | 2024-05-02T05:29:13 | 1 | 0 | 3131359425 | 3131359425 | 2,024 | 5 | |
10025262:5686480:5690030 | 11-VIC | 0 | 2024-05-02T05:36:00 | 0 | 48.454334 | -123.396332 | 0 | 146,804 | 0 | 1 | 100671 | 1 | 2024-05-02T05:28:56 | 1 | 0 | 3131359391 | 3131359391 | 2,024 | 5 | |
10093893:5678708:5690865 | 52-VIC | 1 | 2024-05-02T05:37:00 | 0 | 48.444954 | -123.466064 | 0 | 342,666 | 0 | 1 | 101232 | 1 | 2024-05-02T05:29:04 | 1 | 0 | 3131351241 | 3131351241 | 2,024 | 5 | |
10025239:5680049:5690758 | 11-VIC | 0 | 2024-05-02T05:06:00 | 0 | 48.424488 | -123.364082 | 0 | 77,120 | 6.73 | 31 | 100045 | 2 | 2024-05-02T05:29:14 | 1 | 0 | 3131359442 | 3131359442 | 2,024 | 5 | |
10115124:5690021:5690297 | 95-VIC | 0 | 2024-05-02T05:12:00 | 0 | 48.459091 | -123.402351 | 0 | 360,468 | 21.379999 | 2 | 102211 | 2 | 2024-05-02T05:29:13 | 1 | 0 | 3131359396 | 3131359396 | 2,024 | 5 | |
10025742:5687687:5691342 | 28-VIC | 1 | 2024-05-02T05:15:00 | 0 | 48.455318 | -123.333099 | 0 | 20,293 | 8.88 | 22 | 100727 | 2 | 2024-05-02T05:29:12 | 1 | 0 | 3131359435 | 3131359435 | 2,024 | 5 | |
10070370:5683257:5690203 | 61-VIC | 1 | 2024-05-02T05:31:00 | 0 | 48.445263 | -123.506035 | 0 | 101,520 | 0 | 1 | 101573 | 1 | 2024-05-02T05:28:58 | 1 | 0 | 3131351175 | 3131351175 | 2,024 | 5 | |
10070369:5684650:5690379 | 95-VIC | 0 | 2024-05-02T05:51:00 | 0 | 48.445366 | -123.505707 | 0 | 103,255 | 0 | 1 | 101573 | 2 | 2024-05-02T05:29:10 | 1 | 0 | 3131359536 | 3131359536 | 2,024 | 5 | |
10114094:5685137:5691290 | 15-VIC | 0 | 2024-05-02T05:12:00 | 0 | 48.438805 | -123.364517 | 0 | 154,005 | 10.27 | 2 | 900000 | 2 | 2024-05-02T05:29:17 | 1 | 0 | 3131359342 | 3131359342 | 2,024 | 5 | |
0 | 1754-08-30T22:43:41.128000 | 0 | 48.378414 | -123.722054 | 0 | 31,139 | 0 | 0 | 1 | 2024-05-02T05:28:23 | 0 | 0 | 3131351171 | 3131351171 | 2,024 | 5 | ||||
10070162:5684730:5691071 | 26-VIC | 0 | 2024-05-02T05:36:00 | 0 | 48.427647 | -123.428108 | 0 | 4,054 | 0 | 1 | 100698 | 1 | 2024-05-02T05:28:49 | 1 | 0 | 3131359370 | 3131359370 | 2,024 | 5 | |
10070365:5680342:5691090 | 95-VIC | 1 | 2024-05-02T05:24:00 | 0 | 48.422478 | -123.365799 | 0 | 260,750 | 8.61 | 2 | 100010 | 2 | 2024-05-02T05:29:15 | 1 | 0 | 3131359502 | 3131359502 | 2,024 | 5 | |
10025533:5681438:5695559 | 25-VIC | 0 | 2024-05-02T05:12:00 | 0 | 48.42226 | -123.409111 | 0 | 349,342 | 9.44 | 25 | 100367 | 2 | 2024-05-02T05:29:07 | 1 | 0 | 3131359403 | 3131359403 | 2,024 | 5 | |
10053686:5684135:5695905 | 30-VIC | 0 | 2024-05-02T05:06:00 | 0 | 48.476864 | -123.398911 | 0 | 279,544 | 8.61 | 26 | 101093 | 2 | 2024-05-02T05:29:11 | 1 | 0 | 3131359477 | 3131359477 | 2,024 | 5 | |
10025731:5689360:5690435 | 28-VIC | 0 | 2024-05-02T05:12:00 | 0 | 48.436447 | -123.333557 | 0 | 228,856 | 0.55 | 14 | 100450 | 1 | 2024-05-02T05:29:11 | 1 | 0 | 3131359409 | 3131359409 | 2,024 | 5 | |
10070687:5679214:5690974 | 72-VIC | 0 | 2024-05-02T05:33:00 | 0 | 48.419765 | -123.368881 | 0 | 294,310 | 0 | 1 | 100029 | 2 | 2024-05-02T05:28:29 | 1 | 0 | 3131359543 | 3131359543 | 2,024 | 5 | |
10051138:5678815:5691354 | 21-VIC | 1 | 2024-05-02T05:18:00 | 0 | 48.448189 | -123.382286 | 0 | 198,027 | 0.83 | 18 | 100446 | 1 | 2024-05-02T05:29:11 | 1 | 0 | 3131359415 | 3131359415 | 2,024 | 5 | |
10025263:5675960:5691283 | 11-VIC | 1 | 2024-05-02T05:42:00 | 0 | 48.466122 | -123.309074 | 0 | 247,749 | 0 | 1 | 100507 | 2 | 2024-05-02T05:29:07 | 1 | 0 | 3131359427 | 3131359427 | 2,024 | 5 | |
10054053:5686524:5690243 | 2-VIC | 1 | 2024-05-02T05:08:00 | 0 | 48.424534 | -123.365433 | 0 | 246,495 | 7.77 | 28 | 100019 | 2 | 2024-05-02T05:28:53 | 1 | 0 | 3131359368 | 3131359368 | 2,024 | 5 | |
10024660:5677776:5691209 | 14-VIC | 1 | 2024-05-02T05:39:00 | 0 | 48.466564 | -123.308617 | 0 | 146,740 | 0 | 1 | 102416 | 1 | 2024-05-02T05:29:00 | 1 | 0 | 3131359287 | 3131359287 | 2,024 | 5 | |
10094186:5684397:5691170 | 60-VIC | 1 | 2024-05-02T05:20:00 | 0 | 48.416241 | -123.490219 | 0 | 0 | 7.71 | 14 | 101409 | 2 | 2024-05-02T05:29:11 | 1 | 0 | 3131354248 | 3131354248 | 2,024 | 5 | |
10025708:5674263:5690268 | 27-VIC | 0 | 2024-05-02T05:32:00 | 0 | 48.421497 | -123.363838 | 0 | 94,838 | 0 | 1 | 100024 | 2 | 2024-05-02T05:16:02 | 1 | 0 | 3131359475 | 3131359475 | 2,024 | 5 | |
10070166:5684504:5690421 | 26-VIC | 0 | 2024-05-02T05:06:00 | 0 | 48.468353 | -123.370781 | 0 | 246,744 | 10.27 | 29 | 100892 | 2 | 2024-05-02T05:29:05 | 1 | 0 | 3131359441 | 3131359441 | 2,024 | 5 | |
10025535:5688407:5691098 | 24-VIC | 1 | 2024-05-02T05:39:00 | 0 | 48.467831 | -123.33503 | 0 | 18,295 | 0 | 1 | 100965 | 1 | 2024-05-02T05:29:01 | 1 | 0 | 3131359311 | 3131359311 | 2,024 | 5 | |
10070367:5674117:5690334 | 95-VIC | 0 | 2024-05-02T05:20:00 | 0 | 48.45454 | -123.461235 | 0 | 320,068 | 16.940001 | 12 | 101262 | 2 | 2024-05-02T05:29:16 | 1 | 0 | 3131359547 | 3131359547 | 2,024 | 5 | |
10051055:5682990:5691448 | 7-VIC | 1 | 2024-05-02T05:06:00 | 0 | 48.450375 | -123.316666 | 0 | 130,862 | 11.11 | 33 | 100864 | 2 | 2024-05-02T05:29:15 | 1 | 0 | 3131359383 | 3131359383 | 2,024 | 5 | |
10070341:5681515:5690952 | 95-VIC | 0 | 2024-05-02T04:59:00 | 0 | 48.428234 | -123.364456 | 0 | 258,799 | 2.22 | 22 | 100034 | 2 | 2024-05-02T05:29:24 | 1 | 0 | 3131359511 | 3131359511 | 2,024 | 5 | |
10051009:5681806:5690550 | 21-VIC | 0 | 2024-05-02T05:05:00 | 0 | 48.463356 | -123.404358 | 0 | 50,667 | 2.22 | 20 | 100903 | 1 | 2024-05-02T05:29:32 | 1 | 0 | 3131351237 | 3131351237 | 2,024 | 5 | |
10024590:5689097:5690620 | 14-VIC | 1 | 2024-05-02T05:09:00 | 0 | 48.424721 | -123.348587 | 0 | 189,022 | 6.43 | 26 | 100165 | 1 | 2024-05-02T05:29:32 | 1 | 0 | 3131359443 | 3131359443 | 2,024 | 5 | |
10115221:5684515:5690465 | 8-VIC | 0 | 2024-05-02T04:57:00 | 0 | 48.475471 | -123.515434 | 0 | 188,943 | 10 | 2 | 101834 | 2 | 2024-05-02T05:29:28 | 1 | 0 | 3131351247 | 3131351247 | 2,024 | 5 | |
10025722:5682037:5691131 | 27-VIC | 0 | 2024-05-02T04:55:00 | 0 | 48.487267 | -123.307442 | 0 | 121,947 | 10.55 | 43 | 101422 | 2 | 2024-05-02T05:29:30 | 1 | 0 | 3131359486 | 3131359486 | 2,024 | 5 | |
10054643:5681080:5691243 | 15-VIC | 0 | 2024-05-02T05:01:00 | 0 | 48.44994 | -123.317192 | 0 | 252,737 | 11.66 | 28 | 100913 | 2 | 2024-05-02T05:29:26 | 1 | 0 | 3131359313 | 3131359313 | 2,024 | 5 | |
10054582:5679167:5690397 | 15-VIC | 1 | 2024-05-02T05:21:00 | 0 | 48.430241 | -123.328659 | 0 | 142,866 | 10.83 | 7 | 100438 | 2 | 2024-05-02T05:29:27 | 1 | 0 | 3131359455 | 3131359455 | 2,024 | 5 | |
10025529:5681652:5691314 | 25-VIC | 1 | 2024-05-02T04:59:00 | 0 | 48.422729 | -123.414055 | 0 | 283,078 | 7.77 | 49 | 100481 | 2 | 2024-05-02T05:29:32 | 1 | 0 | 3131359456 | 3131359456 | 2,024 | 5 | |
10025260:5688255:5690630 | 11-VIC | 1 | 2024-05-02T05:07:00 | 0 | 48.424366 | -123.34433 | 0 | 171,940 | 8.05 | 40 | 100191 | 2 | 2024-05-02T05:29:26 | 1 | 0 | 3131351179 | 3131351179 | 2,024 | 5 | |
10070154:5680186:5690876 | 26-VIC | 1 | 2024-05-02T05:20:00 | 0 | 48.470257 | -123.363289 | 0 | 259,295 | 11.66 | 15 | 100918 | 2 | 2024-05-02T05:29:28 | 1 | 0 | 3131359462 | 3131359462 | 2,024 | 5 | |
10053521:5673796:5690870 | 6-VIC | 0 | 2024-05-02T05:20:00 | 0 | 48.436646 | -123.35836 | 0 | 135,438 | 14.16 | 11 | 100234 | 2 | 2024-05-02T05:29:31 | 1 | 0 | 3131351173 | 3131351173 | 2,024 | 5 | |
10024591:5673982:5690671 | 14-VIC | 0 | 2024-05-02T05:35:00 | 0 | 48.466251 | -123.435051 | 0 | 283,327 | 0 | 1 | 101119 | 1 | 2024-05-02T05:29:27 | 1 | 0 | 3131359481 | 3131359481 | 2,024 | 5 | |
10053557:5687094:5690314 | 75-VIC | 0 | 2024-05-02T05:13:00 | 0 | 48.456684 | -123.371712 | 0 | 230,001 | 12.77 | 17 | 100679 | 2 | 2024-05-02T05:29:28 | 1 | 0 | 3131359286 | 3131359286 | 2,024 | 5 | |
10070728:5681662:5690391 | 72-VIC | 0 | 2024-05-02T04:30:00 | 0 | 48.657524 | -123.402893 | 0 | 384,906 | 0 | 51 | 102287 | 1 | 2024-05-02T05:29:31 | 1 | 0 | 3131359421 | 3131359421 | 2,024 | 5 | |
10051099:5688223:5695591 | 7-VIC | 0 | 2024-05-02T05:13:00 | 0 | 48.411766 | -123.352585 | 0 | 343,506 | 11.11 | 31 | 100155 | 2 | 2024-05-02T05:29:27 | 1 | 0 | 3131359312 | 3131359312 | 2,024 | 5 | |
10069962:5685240:5691115 | 4-VIC | 0 | 2024-05-02T05:07:00 | 0 | 48.463863 | -123.308228 | 0 | 152,706 | 8.61 | 29 | 102420 | 2 | 2024-05-02T05:29:32 | 1 | 0 | 3131359410 | 3131359410 | 2,024 | 5 | |
10094108:5685911:5690773 | 57-VIC | 1 | 2024-05-02T05:22:00 | 0 | 48.464664 | -123.497528 | 0 | 156,600 | 7.22 | 10 | 101646 | 2 | 2024-05-02T05:29:32 | 1 | 0 | 3131354212 | 3131354212 | 2,024 | 5 | |
10053518:5686861:5695768 | 6-VIC | 1 | 2024-05-02T05:24:00 | 0 | 48.480385 | -123.377663 | 0 | 23,856 | 12.77 | 8 | 101027 | 2 | 2024-05-02T05:29:30 | 1 | 0 | 3131351182 | 3131351182 | 2,024 | 5 | |
10070346:5688208:5690499 | 95-VIC | 1 | 2024-05-02T05:04:00 | 0 | 48.44421 | -123.467964 | 0 | 355,815 | 0 | 15 | 101245 | 1 | 2024-05-02T05:29:31 | 1 | 0 | 3131351240 | 3131351240 | 2,024 | 5 | |
10094151:5688108:5690119 | 60-VIC | 0 | 2024-05-02T05:09:00 | 0 | 48.439976 | -123.506073 | 0 | 0 | 6.43 | 29 | 101846 | 2 | 2024-05-02T05:29:31 | 1 | 0 | 3131354242 | 3131354242 | 2,024 | 5 | |
10069945:5679308:5695840 | 4-VIC | 1 | 2024-05-02T05:24:00 | 0 | 48.447472 | -123.321304 | 0 | 0 | 1.69 | 8 | 100752 | 1 | 2024-05-02T05:29:25 | 1 | 0 | 3131359445 | 3131359445 | 2,024 | 5 | |
10070711:5688859:5690399 | 70-VIC | 0 | 2024-05-02T04:53:00 | 0 | 48.59066 | -123.399818 | 0 | 238,849 | 23.33 | 20 | 102474 | 2 | 2024-05-02T05:29:31 | 1 | 0 | 3131359538 | 3131359538 | 2,024 | 5 | |
10025335:5685663:5690335 | 8-VIC | 0 | 2024-05-02T05:10:00 | 0 | 48.448326 | -123.342445 | 0 | 135,060 | 10.27 | 30 | 100611 | 2 | 2024-05-02T05:29:31 | 1 | 0 | 3131359465 | 3131359465 | 2,024 | 5 | |
10115431:5680383:5690198 | 49-VIC | 0 | 2024-05-02T05:25:00 | 0 | 48.451004 | -123.51786 | 0 | 0 | 12.34 | 2 | 930000 | 2 | 2024-05-02T05:29:26 | 1 | 0 | 3131354211 | 3131354211 | 2,024 | 5 | |
10070674:5687017:5690196 | 72-VIC | 1 | 2024-05-02T04:57:00 | 0 | 48.588333 | -123.419312 | 0 | 193,187 | 12.22 | 35 | 102030 | 0 | 2024-05-02T05:29:31 | 1 | 0 | 3131359504 | 3131359504 | 2,024 | 5 | |
10113714:5683491:5695463 | 32-VIC | 0 | 2024-05-02T05:25:00 | 0 | 48.468094 | -123.425125 | 0 | 396,154 | 15 | 2 | 930000 | 2 | 2024-05-02T05:29:28 | 1 | 0 | 3131354217 | 3131354217 | 2,024 | 5 | |
10054254:5689524:5691489 | 2-VIC | 0 | 2024-05-02T05:00:00 | 0 | 48.425678 | -123.309464 | 0 | 250,710 | 11.11 | 41 | 100742 | 2 | 2024-05-02T05:29:28 | 1 | 0 | 3131359468 | 3131359468 | 2,024 | 5 | |
10053680:5676781:5695407 | 75-VIC | 1 | 2024-05-02T05:30:00 | 0 | 48.591385 | -123.41806 | 0 | 119,015 | 11.94 | 2 | 102030 | 2 | 2024-05-02T05:29:30 | 1 | 0 | 3131359379 | 3131359379 | 2,024 | 5 | |
10053552:5681858:5690324 | 75-VIC | 1 | 2024-05-02T04:30:00 | 0 | 48.424854 | -123.365379 | 0 | 123,808 | 0 | 56 | 100034 | 1 | 2024-05-02T05:29:24 | 1 | 0 | 3131359424 | 3131359424 | 2,024 | 5 | |
10054606:5688758:5690743 | 15-VIC | 0 | 2024-05-02T05:26:00 | 0 | 48.428623 | -123.42791 | 0 | 266,046 | 2.22 | 3 | 100635 | 2 | 2024-05-02T05:29:27 | 1 | 0 | 3131359428 | 3131359428 | 2,024 | 5 | |
10053546:5681087:5695474 | 30-VIC | 1 | 2024-05-02T05:10:00 | 0 | 48.43507 | -123.365219 | 0 | 291,222 | 8.05 | 28 | 100132 | 2 | 2024-05-02T05:29:27 | 1 | 0 | 3131359425 | 3131359425 | 2,024 | 5 | |
10025262:5686480:5690030 | 11-VIC | 0 | 2024-05-02T05:36:00 | 0 | 48.454334 | -123.396332 | 0 | 146,804 | 0 | 1 | 100671 | 1 | 2024-05-02T05:29:27 | 1 | 0 | 3131359391 | 3131359391 | 2,024 | 5 | |
10093893:5678708:5690865 | 52-VIC | 1 | 2024-05-02T05:37:00 | 0 | 48.444958 | -123.466064 | 0 | 342,666 | 0 | 1 | 101232 | 1 | 2024-05-02T05:29:19 | 1 | 0 | 3131351241 | 3131351241 | 2,024 | 5 | |
10025239:5680049:5690758 | 11-VIC | 0 | 2024-05-02T05:06:00 | 0 | 48.42437 | -123.363091 | 0 | 77,120 | 3.9 | 31 | 100045 | 2 | 2024-05-02T05:29:24 | 1 | 0 | 3131359442 | 3131359442 | 2,024 | 5 | |
10115124:5690021:5690297 | 95-VIC | 0 | 2024-05-02T05:12:00 | 0 | 48.458145 | -123.397293 | 0 | 360,862 | 19.719999 | 2 | 102211 | 2 | 2024-05-02T05:29:32 | 1 | 0 | 3131359396 | 3131359396 | 2,024 | 5 | |
10025742:5687687:5691342 | 28-VIC | 1 | 2024-05-02T05:15:00 | 0 | 48.453522 | -123.333153 | 0 | 20,482 | 9.72 | 22 | 100727 | 2 | 2024-05-02T05:29:32 | 1 | 0 | 3131359435 | 3131359435 | 2,024 | 5 |
End of preview. Expand in Data Studio
Archived General Transit Feed Specification Realtime (GTFS-RT) data for the Victoria Regional Transit System
This dataset was created by collecting realtime updates from the published Victoria GTFS feeds on https://www.bctransit.com/open-data.
The collection tool used is general-purpose and can be applied to other GTFS-RT feeds. See here for more details.
Dataset Structure
- year=YYYY/
- month=MM/
- vehicle_updates.parquet
Licence and Terms of Use
This dataset is distributed in accordance with the terms laid out in https://www.bctransit.com/open-data/terms-of-use.
- Downloads last month
- 24